Time;durP1;ratioP1;P1;durP2;ratioP2;P2;SDS_P1;SDS_P2;PMS_P1;PMS_P2;Temp;Humidity;BMP_temperature;BMP_pressure;BME280_temperature;BME280_humidity;BME280_pressure;Samples;Min_cycle;Max_cycle;Signal;HPM_P1;HPM_P2
2022/10/24 00:02:48;;;;;;;4.20;1.97;;;;;;;22.63;44.86;98374.56;6918740;28;20282;-78
2022/10/24 00:06:11;;;;;;;4.43;1.80;;;;;;;22.63;44.95;98382.81;6919112;28;20239;-78
2022/10/24 00:09:34;;;;;;;7.50;1.97;;;;;;;22.64;45.06;98384.44;6921406;28;20243;-79
2022/10/24 00:12:55;;;;;;;5.57;1.80;;;;;;;22.62;45.32;98378.44;6927911;28;20203;-78
2022/10/24 00:16:18;;;;;;;5.63;1.70;;;;;;;22.69;45.06;98381.63;6925464;28;20251;-79
2022/10/24 00:19:39;;;;;;;5.43;1.80;;;;;;;22.77;45.10;98382.94;6926756;28;20350;-78
2022/10/24 00:23:02;;;;;;;9.77;3.70;;;;;;;22.82;44.57;98375.41;6927659;28;20258;-79
2022/10/24 00:26:23;;;;;;;3.73;1.73;;;;;;;22.63;45.00;98388.31;6927249;28;20658;-78
2022/10/24 00:29:45;;;;;;;5.80;2.00;;;;;;;22.71;44.97;98381.34;6926547;28;20263;-78
2022/10/24 00:33:06;;;;;;;5.30;1.80;;;;;;;22.84;45.01;98392.44;6927383;28;20618;-78
2022/10/24 00:36:29;;;;;;;5.70;1.87;;;;;;;22.57;44.91;98374.91;6927536;28;20675;-79
2022/10/24 00:39:51;;;;;;;3.53;1.90;;;;;;;22.83;44.15;98385.31;6926951;28;20259;-77
2022/10/24 00:43:15;;;;;;;3.53;1.50;;;;;;;22.61;44.23;98376.75;6927605;28;20585;-79
2022/10/24 00:46:36;;;;;;;5.83;1.87;;;;;;;22.69;43.81;98398.13;6927362;28;20352;-78
2022/10/24 00:50:04;;;;;;;5.67;1.73;;;;;;;22.84;43.82;98386.94;6926553;28;20389;-78
2022/10/24 00:53:27;;;;;;;5.40;2.20;;;;;;;22.75;43.57;98391.47;6927386;28;20193;-78
2022/10/24 00:56:58;;;;;;;5.20;2.10;;;;;;;22.93;43.26;98403.59;6927035;28;20209;-79
2022/10/24 01:00:24;;;;;;;5.70;2.30;;;;;;;22.57;44.09;98399.63;6926330;28;20240;-78
2022/10/24 01:03:45;;;;;;;3.77;1.97;;;;;;;22.73;44.01;98401.09;6927202;28;20195;-78
2022/10/24 01:07:19;;;;;;;4.20;2.17;;;;;;;22.77;44.13;98408.47;6927250;28;20624;-78
2022/10/24 01:10:48;;;;;;;5.93;1.77;;;;;;;22.72;43.82;98399.47;6926537;28;20378;-78
2022/10/24 01:14:19;;;;;;;3.57;1.90;;;;;;;22.50;44.47;98393.66;6925790;28;20255;-78
2022/10/24 01:17:43;;;;;;;6.43;1.90;;;;;;;22.69;43.76;98406.38;6926255;28;20198;-78
2022/10/24 01:21:23;;;;;;;9.37;2.60;;;;;;;22.52;44.13;98392.28;6924237;28;20320;-78
2022/10/24 01:24:56;;;;;;;7.17;2.20;;;;;;;22.35;44.86;98386.38;6922713;28;20209;-78
2022/10/24 01:28:19;;;;;;;5.77;2.17;;;;;;;22.50;45.15;98397.25;6922532;28;20251;-78
2022/10/24 01:31:46;;;;;;;7.77;2.57;;;;;;;22.45;45.26;98401.97;6922104;28;20356;-78
2022/10/24 01:35:12;;;;;;;4.83;1.87;;;;;;;22.57;45.06;98385.91;6905257;28;20218;-78
2022/10/24 01:38:35;;;;;;;3.27;1.63;;;;;;;22.41;45.70;98384.38;6894647;28;20222;-78
2022/10/24 01:41:58;;;;;;;5.57;1.90;;;;;;;22.63;45.07;98395.72;6895387;28;20228;-78
2022/10/24 01:45:24;;;;;;;3.87;2.03;;;;;;;22.52;45.24;98397.78;6895092;28;20254;-78
2022/10/24 01:48:49;;;;;;;3.83;1.67;;;;;;;22.08;46.48;98383.34;6894384;28;20207;-78
2022/10/24 01:52:14;;;;;;;6.67;2.40;;;;;;;22.17;46.28;98392.59;6894776;28;20650;-78
2022/10/24 01:55:36;;;;;;;5.33;2.10;;;;;;;22.40;46.11;98397.31;6895304;28;20210;-78
2022/10/24 01:59:05;;;;;;;5.23;2.03;;;;;;;22.05;46.97;98389.44;6894758;28;20316;-78
2022/10/24 02:02:28;;;;;;;7.17;2.13;;;;;;;22.26;46.89;98385.41;6894464;28;20230;-78
2022/10/24 02:05:53;;;;;;;6.07;2.00;;;;;;;22.21;47.14;98396.41;6894668;28;20213;-78
2022/10/24 02:09:16;;;;;;;6.67;1.90;;;;;;;22.29;46.64;98384.78;6893689;28;20193;-78
2022/10/24 02:12:44;;;;;;;4.63;2.47;;;;;;;22.37;46.37;98381.41;6894359;28;20248;-77
2022/10/24 02:16:06;;;;;;;6.70;2.20;;;;;;;22.43;46.75;98395.97;6893660;28;20641;-78
2022/10/24 02:19:28;;;;;;;8.40;2.43;;;;;;;22.18;47.43;98404.44;6893688;28;20229;-78
2022/10/24 02:22:57;;;;;;;3.13;1.93;;;;;;;22.40;46.97;98399.25;6894041;28;20251;-78
2022/10/24 02:26:27;;;;;;;5.40;2.00;;;;;;;22.24;47.32;98401.31;6894506;28;20203;-78
2022/10/24 02:29:51;;;;;;;5.43;2.27;;;;;;;22.31;47.42;98420.22;6893280;28;20228;-78
2022/10/24 02:33:13;;;;;;;7.00;2.57;;;;;;;22.04;47.73;98392.47;6893662;28;20214;-78
2022/10/24 02:36:35;;;;;;;5.70;2.57;;;;;;;22.10;47.59;98386.63;6894702;28;20741;-78
2022/10/24 02:39:59;;;;;;;6.03;2.40;;;;;;;22.29;47.26;98415.00;6893343;28;20314;-78
2022/10/24 02:43:21;;;;;;;3.27;1.97;;;;;;;22.13;47.54;98386.03;6893869;28;20728;-78
2022/10/24 02:46:43;;;;;;;10.67;2.67;;;;;;;22.06;47.98;98369.09;6893691;28;20229;-78
2022/10/24 02:50:05;;;;;;;5.63;2.00;;;;;;;21.73;48.71;98325.22;6891912;28;20225;-78
2022/10/24 02:53:28;;;;;;;5.37;2.33;;;;;;;21.64;49.67;98329.66;6893724;28;20258;-78
2022/10/24 02:56:55;;;;;;;5.37;2.73;;;;;;;21.90;49.20;98325.63;6893511;28;20212;-77
2022/10/24 03:00:17;;;;;;;4.73;2.43;;;;;;;22.14;49.16;98357.47;6892489;28;20238;-77
2022/10/24 03:03:39;;;;;;;7.27;2.50;;;;;;;22.43;48.51;98354.75;6893481;28;20198;-78
2022/10/24 03:07:00;;;;;;;6.13;2.73;;;;;;;21.95;49.49;98356.56;6893062;28;20244;-78
2022/10/24 03:10:22;;;;;;;6.50;2.40;;;;;;;21.87;49.99;98368.19;6892096;28;20226;-78
2022/10/24 03:13:44;;;;;;;12.33;2.80;;;;;;;22.05;50.19;98386.69;6891967;28;20643;-77
2022/10/24 03:17:06;;;;;;;6.50;2.67;;;;;;;22.07;49.83;98372.66;6892479;28;20291;-78
2022/10/24 03:20:28;;;;;;;6.57;3.20;;;;;;;22.16;49.62;98388.22;6895502;28;20231;-78
2022/10/24 03:23:49;;;;;;;9.00;2.90;;;;;;;21.60;50.88;98370.56;6893419;28;20541;-79
2022/10/24 03:27:11;;;;;;;8.90;2.60;;;;;;;22.07;50.22;98378.16;6894969;28;20207;-78
2022/10/24 03:30:34;;;;;;;7.73;2.90;;;;;;;22.07;50.31;98381.72;6892467;28;20320;-78
2022/10/24 03:34:02;;;;;;;7.47;2.77;;;;;;;22.04;50.43;98385.06;6894360;28;20291;-79
2022/10/24 03:37:24;;;;;;;7.83;3.50;;;;;;;21.85;51.09;98388.78;6895677;28;20211;-79
2022/10/24 03:40:45;;;;;;;8.37;3.07;;;;;;;21.47;52.13;98386.84;6895803;28;20233;-78
2022/10/24 03:44:07;;;;;;;7.73;3.70;;;;;;;22.00;50.83;98380.41;6894965;28;20297;-78
2022/10/24 03:47:30;;;;;;;6.23;2.30;;;;;;;21.48;52.05;98377.53;6893983;28;20242;-79
2022/10/24 03:50:51;;;;;;;12.63;3.00;;;;;;;21.76;51.44;98366.63;6892824;28;20230;-78
2022/10/24 03:54:14;;;;;;;9.37;2.50;;;;;;;21.72;51.87;98367.50;6896459;28;20200;-78
2022/10/24 03:57:35;;;;;;;8.57;2.73;;;;;;;21.36;52.58;98349.63;6891475;28;20216;-79
2022/10/24 04:00:58;;;;;;;6.80;3.10;;;;;;;21.53;52.55;98366.53;6891732;28;20327;-79
2022/10/24 04:04:20;;;;;;;7.37;2.83;;;;;;;21.81;51.40;98388.53;6893959;28;20209;-78
2022/10/24 04:07:42;;;;;;;6.40;2.57;;;;;;;21.70;51.93;98380.66;6890673;28;20814;-78
2022/10/24 04:11:04;;;;;;;6.87;2.47;;;;;;;22.01;50.86;98377.38;6891796;28;20227;-78
2022/10/24 04:14:25;;;;;;;6.77;3.20;;;;;;;22.10;50.64;98397.63;6891781;28;20299;-78
2022/10/24 04:17:47;;;;;;;6.57;2.63;;;;;;;21.74;51.00;98376.25;6900443;28;20621;-79
2022/10/24 04:21:10;;;;;;;6.37;2.60;;;;;;;22.03;50.45;98394.41;6918430;28;20289;-78
2022/10/24 04:24:31;;;;;;;6.07;2.50;;;;;;;22.09;50.37;98396.00;6918847;28;20204;-78
2022/10/24 04:27:53;;;;;;;5.90;2.60;;;;;;;22.16;50.08;98380.00;6917708;28;20270;-78
2022/10/24 04:31:15;;;;;;;4.47;2.30;;;;;;;21.87;50.99;98384.66;6918068;28;20366;-78
2022/10/24 04:34:36;;;;;;;8.20;2.83;;;;;;;22.12;50.33;98387.16;6918266;28;20208;-78
2022/10/24 04:37:59;;;;;;;4.87;2.90;;;;;;;22.09;50.03;98349.31;6917632;28;20685;-80
2022/10/24 04:41:21;;;;;;;7.33;3.00;;;;;;;21.89;50.28;98370.66;6902583;28;20328;-79
2022/10/24 04:44:42;;;;;;;9.90;3.00;;;;;;;21.85;50.47;98353.94;6906758;28;20544;-80
2022/10/24 04:48:04;;;;;;;6.87;2.77;;;;;;;22.25;49.58;98352.72;6925704;28;20298;-80
2022/10/24 04:51:26;;;;;;;5.80;2.70;;;;;;;22.10;50.15;98359.19;6915922;28;20272;-80
2022/10/24 04:54:49;;;;;;;6.70;3.13;;;;;;;22.15;49.90;98366.53;6916799;28;20302;-80
2022/10/24 04:58:10;;;;;;;3.90;2.77;;;;;;;21.92;50.74;98370.88;6923054;28;20678;-79
2022/10/24 05:01:32;;;;;;;8.20;3.33;;;;;;;22.01;50.01;98373.84;6922937;28;20370;-79
2022/10/24 05:04:53;;;;;;;5.20;2.50;;;;;;;21.85;50.27;98391.53;6925640;28;20850;-79
2022/10/24 05:08:15;;;;;;;7.97;2.53;;;;;;;21.58;51.14;98370.03;6922618;28;20246;-80
2022/10/24 05:11:38;;;;;;;5.57;2.50;;;;;;;21.91;50.16;98376.66;6923554;28;20254;-79
2022/10/24 05:14:59;;;;;;;6.20;2.90;;;;;;;21.78;50.43;98366.34;6905239;28;20290;-79
2022/10/24 05:18:21;;;;;;;9.30;2.80;;;;;;;21.64;50.33;98349.69;6896459;28;20299;-79
2022/10/24 05:21:43;;;;;;;6.73;2.60;;;;;;;21.53;50.33;98320.69;6901311;28;20260;-80
2022/10/24 05:25:05;;;;;;;6.97;2.67;;;;;;;21.89;50.10;98390.66;6896070;28;20287;-79
2022/10/24 05:28:28;;;;;;;8.47;2.83;;;;;;;21.77;50.61;98384.72;6916130;28;20253;-79
2022/10/24 05:31:50;;;;;;;8.20;3.10;;;;;;;21.45;51.22;98373.44;6923207;28;20319;-79
2022/10/24 05:35:11;;;;;;;7.73;3.10;;;;;;;21.83;50.92;98391.00;6923780;28;20259;-79
2022/10/24 05:38:33;;;;;;;6.20;2.77;;;;;;;22.15;49.60;98392.09;6923457;28;20685;-79
2022/10/24 05:41:54;;;;;;;7.30;2.67;;;;;;;22.00;49.43;98370.25;6927490;28;20266;-80
2022/10/24 05:45:17;;;;;;;7.97;2.57;;;;;;;22.25;48.99;98400.22;6932779;28;20247;-80
2022/10/24 05:48:39;;;;;;;6.93;2.83;;;;;;;22.05;49.33;98369.38;6921161;28;20380;-80
2022/10/24 05:52:00;;;;;;;6.60;2.70;;;;;;;22.38;48.52;98394.06;6922601;28;20249;-79
2022/10/24 05:55:22;;;;;;;4.83;2.87;;;;;;;22.38;48.10;98405.03;6923283;28;20348;-79
2022/10/24 05:58:43;;;;;;;6.97;2.70;;;;;;;22.48;47.78;98382.97;6923695;28;20441;-80
2022/10/24 06:02:07;;;;;;;6.10;2.77;;;;;;;22.79;47.69;98428.25;6903929;28;20320;-79
2022/10/24 06:05:28;;;;;;;6.93;2.60;;;;;;;22.69;47.36;98422.03;6897083;28;20270;-79
2022/10/24 06:08:50;;;;;;;5.20;2.90;;;;;;;22.50;47.92;98424.72;6904538;28;20224;-79
2022/10/24 06:12:11;;;;;;;9.03;2.90;;;;;;;22.48;48.02;98432.44;6924438;28;20235;-79
2022/10/24 06:15:33;;;;;;;4.87;2.73;;;;;;;22.50;47.85;98441.22;6926956;28;20326;-80
2022/10/24 06:18:56;;;;;;;3.73;2.17;;;;;;;22.81;47.59;98452.69;6919732;28;20230;-80
2022/10/24 06:22:18;;;;;;;6.93;2.50;;;;;;;22.35;48.12;98476.19;6924153;28;20297;-80
2022/10/24 06:25:41;;;;;;;6.63;3.50;;;;;;;22.54;47.91;98477.97;6899078;28;20204;-80
2022/10/24 06:29:02;;;;;;;6.17;2.50;;;;;;;22.71;47.59;98505.84;6896493;28;20209;-80
2022/10/24 06:32:24;;;;;;;4.50;2.37;;;;;;;22.67;47.71;98495.72;6896763;28;20320;-82
2022/10/24 06:35:47;;;;;;;7.50;2.83;;;;;;;22.28;48.88;98475.72;6896450;28;20208;-80
2022/10/24 06:39:09;;;;;;;5.53;2.60;;;;;;;22.88;48.30;98488.88;6922158;28;20229;-80
2022/10/24 06:42:30;;;;;;;10.63;3.10;;;;;;;22.25;49.24;98465.31;6922973;28;20728;-79
2022/10/24 06:45:52;;;;;;;4.57;2.03;;;;;;;22.17;50.79;98476.91;6922718;28;20215;-79
2022/10/24 06:49:14;;;;;;;4.97;2.33;;;;;;;22.22;49.93;98465.88;6922091;28;20294;-78
2022/10/24 06:52:37;;;;;;;7.93;2.40;;;;;;;22.47;49.85;98483.00;6922828;28;20216;-79
2022/10/24 06:56:00;;;;;;;4.40;2.27;;;;;;;22.62;49.80;98482.03;6913937;28;20333;-79
2022/10/24 06:59:21;;;;;;;6.83;2.60;;;;;;;22.14;50.66;98458.28;6916807;28;20227;-79
2022/10/24 07:02:43;;;;;;;4.43;2.40;;;;;;;22.01;51.25;98473.47;6910456;28;20247;-80
2022/10/24 07:06:08;;;;;;;5.37;2.27;;;;;;;22.15;50.91;98485.47;6896585;28;20280;-79
2022/10/24 07:09:31;;;;;;;5.20;2.60;;;;;;;22.27;50.36;98491.41;6895792;28;20216;-80
2022/10/24 07:12:52;;;;;;;4.50;2.30;;;;;;;22.49;49.47;98472.53;6913356;28;20227;-80
2022/10/24 07:16:14;;;;;;;5.23;2.43;;;;;;;22.15;50.92;98484.63;6928505;28;20243;-79
2022/10/24 07:19:35;;;;;;;9.27;2.37;;;;;;;22.56;50.69;98530.75;6920489;28;22260;-78
2022/10/24 07:22:57;;;;;;;10.17;2.90;;;;;;;22.52;52.61;98562.63;6921138;28;20242;-79
2022/10/24 07:26:21;;;;;;;11.17;3.60;;;;;;;22.01;54.49;98557.78;6921501;28;20357;-78
2022/10/24 07:29:42;;;;;;;4.30;2.30;;;;;;;21.65;54.43;98512.41;6920125;28;20255;-77
2022/10/24 07:33:04;;;;;;;7.17;2.37;;;;;;;21.80;54.54;98521.41;6920803;28;20686;-78
2022/10/24 07:36:26;;;;;;;4.67;2.60;;;;;;;22.16;53.17;98535.69;6920211;28;20263;-77
2022/10/24 07:39:48;;;;;;;4.27;2.40;;;;;;;21.94;53.91;98516.91;6900252;28;20763;-77
2022/10/24 07:43:10;;;;;;;9.70;2.60;;;;;;;21.63;55.16;98528.31;6892725;28;20309;-77
2022/10/24 07:46:32;;;;;;;5.30;2.63;;;;;;;21.43;56.94;98520.19;6892941;28;20272;-77
2022/10/24 07:49:54;;;;;;;3.87;2.40;;;;;;;21.97;55.15;98543.81;6908170;28;20910;-77
2022/10/24 07:53:15;;;;;;;4.87;2.93;;;;;;;21.97;55.65;98534.72;6893067;28;20193;-77
2022/10/24 07:56:37;;;;;;;4.77;2.47;;;;;;;21.90;55.58;98513.06;6892694;28;20376;-77
2022/10/24 08:00:00;;;;;;;5.43;2.70;;;;;;;21.74;56.80;98530.78;6892071;28;20301;-78
2022/10/24 08:03:22;;;;;;;7.57;2.80;;;;;;;21.60;57.24;98528.91;6893169;28;20765;-77
2022/10/24 08:06:43;;;;;;;7.33;2.90;;;;;;;21.60;57.73;98543.41;6892495;28;20208;-77
2022/10/24 08:10:08;;;;;;;6.67;2.97;;;;;;;20.96;58.05;98555.47;6892555;28;20216;-79
2022/10/24 08:13:29;;;;;;;3.03;2.50;;;;;;;20.88;59.13;98564.22;6892584;28;20217;-77
2022/10/24 08:16:52;;;;;;;6.00;2.67;;;;;;;20.61;59.20;98562.88;6893508;28;20212;-78
2022/10/24 08:20:13;;;;;;;5.63;2.30;;;;;;;20.43;60.75;98557.94;6909845;28;20318;-77
2022/10/24 08:23:36;;;;;;;5.90;2.70;;;;;;;20.36;60.84;98579.31;6920170;28;20315;-77
2022/10/24 08:26:59;;;;;;;6.13;2.47;;;;;;;20.24;61.85;98568.63;6920142;28;20295;-77
2022/10/24 08:30:20;;;;;;;6.90;3.27;;;;;;;19.66;63.49;98519.78;6920702;28;20310;-77
2022/10/24 08:33:43;;;;;;;6.63;2.77;;;;;;;19.39;64.43;98450.00;6925637;28;20382;-77
2022/10/24 08:37:05;;;;;;;5.20;2.23;;;;;;;19.65;64.32;98425.16;6925373;28;20208;-77
2022/10/24 08:40:27;;;;;;;9.73;2.80;;;;;;;19.76;63.23;98423.25;6924217;28;20231;-78
2022/10/24 08:43:48;;;;;;;9.47;2.97;;;;;;;20.01;62.29;98415.00;6924977;28;20702;-77
2022/10/24 08:47:18;;;;;;;6.60;2.97;;;;;;;20.82;61.00;98485.03;6911068;28;20772;-77
2022/10/24 08:50:47;;;;;;;6.07;3.03;;;;;;;20.58;61.67;98511.38;6906661;28;20362;-77
2022/10/24 08:54:11;;;;;;;6.47;2.77;;;;;;;20.49;62.15;98497.41;6926036;28;20270;-77
2022/10/24 08:57:34;;;;;;;6.77;2.70;;;;;;;20.81;60.03;98508.84;6924313;28;20239;-78
2022/10/24 09:00:59;;;;;;;5.27;2.60;;;;;;;20.68;59.96;98503.97;6924031;28;20293;-77
2022/10/24 09:04:23;;;;;;;5.03;2.77;;;;;;;21.02;58.74;98510.50;6924377;28;20261;-78
2022/10/24 09:07:56;;;;;;;6.57;2.80;;;;;;;20.89;58.82;98515.72;6923864;28;20271;-78
2022/10/24 09:11:23;;;;;;;7.43;2.53;;;;;;;20.61;60.26;98508.06;6924030;28;20247;-77
2022/10/24 09:14:46;;;;;;;7.53;2.77;;;;;;;20.59;60.71;98508.38;6923650;28;20334;-77
2022/10/24 09:18:15;;;;;;;6.60;3.03;;;;;;;20.06;62.95;98510.81;6923587;28;20208;-77
2022/10/24 09:21:40;;;;;;;5.67;2.90;;;;;;;20.34;61.86;98505.63;6924133;28;20807;-78
2022/10/24 09:25:05;;;;;;;8.00;2.60;;;;;;;19.88;63.86;98523.09;6924182;28;20661;-78
2022/10/24 09:28:26;;;;;;;5.73;2.87;;;;;;;20.60;61.09;98540.16;6923544;28;20695;-78
2022/10/24 09:31:48;;;;;;;6.23;2.50;;;;;;;20.13;62.62;98545.06;6923728;28;20342;-77
2022/10/24 09:35:16;;;;;;;7.10;2.83;;;;;;;20.45;61.36;98537.41;6923832;28;20208;-77
2022/10/24 09:38:39;;;;;;;6.00;2.30;;;;;;;20.25;62.20;98545.63;6923172;28;20326;-77
2022/10/24 09:42:03;;;;;;;7.70;2.63;;;;;;;20.04;62.70;98530.25;6923021;28;20238;-78
2022/10/24 09:45:31;;;;;;;7.63;2.83;;;;;;;20.16;62.77;98562.88;6923789;28;20208;-78
2022/10/24 09:48:55;;;;;;;6.60;2.30;;;;;;;19.96;62.75;98535.44;6922305;28;20723;-78
2022/10/24 09:52:20;;;;;;;4.67;2.33;;;;;;;20.14;62.08;98538.50;6923495;28;20264;-78
2022/10/24 09:55:45;;;;;;;7.17;2.43;;;;;;;19.92;63.28;98531.63;6918985;28;20246;-77
2022/10/24 09:59:27;;;;;;;6.63;2.50;;;;;;;20.36;61.47;98544.53;6910678;28;20196;-78
2022/10/24 10:02:57;;;;;;;5.43;2.60;;;;;;;20.52;60.78;98520.69;6894524;28;20291;-78
2022/10/24 10:06:20;;;;;;;5.03;2.83;;;;;;;20.65;60.25;98523.72;6897724;28;20227;-78
2022/10/24 10:09:49;;;;;;;4.13;2.13;;;;;;;20.88;59.73;98525.84;6896099;28;20262;-79
2022/10/24 10:13:22;;;;;;;17.73;10.27;;;;;;;21.19;59.54;98549.38;6896793;28;20964;-79
2022/10/24 10:16:45;;;;;;;4.30;2.33;;;;;;;21.23;58.19;98544.13;6918699;28;20192;-80
2022/10/24 10:20:22;;;;;;;3.67;2.10;;;;;;;21.57;56.77;98543.16;6923929;28;20236;-78
2022/10/24 10:23:45;;;;;;;6.17;2.23;;;;;;;21.06;57.85;98533.50;6897868;28;20203;-78
2022/10/24 10:27:29;;;;;;;5.10;2.40;;;;;;;21.38;56.92;98543.00;6896638;28;20210;-79
2022/10/24 10:30:54;;;;;;;3.67;2.13;;;;;;;21.47;56.20;98513.84;6899766;28;20586;-79
2022/10/24 10:34:22;;;;;;;5.63;2.30;;;;;;;21.63;56.09;98526.41;6896520;28;20287;-79
2022/10/24 10:37:45;;;;;;;3.57;2.03;;;;;;;21.58;56.33;98526.44;6918168;28;20226;-78
2022/10/24 10:41:13;;;;;;;5.47;2.30;;;;;;;21.54;56.04;98516.31;6924334;28;20223;-78
2022/10/24 10:44:44;;;;;;;4.87;2.40;;;;;;;21.70;55.91;98515.97;6923493;28;20728;-78
2022/10/24 10:48:18;;;;;;;6.53;2.77;;;;;;;21.57;55.66;98524.78;6896297;28;20348;-78
2022/10/24 10:51:44;;;;;;;5.47;3.00;;;;;;;21.42;55.83;98502.09;6912725;28;20391;-78
2022/10/24 10:55:15;;;;;;;5.63;3.00;;;;;;;22.08;54.24;98545.34;6921804;28;20208;-78
2022/10/24 10:58:42;;;;;;;6.77;2.70;;;;;;;22.11;53.53;98541.22;6926050;28;20644;-79
2022/10/24 11:02:23;;;;;;;8.53;3.20;;;;;;;22.25;53.60;98564.22;6917306;28;20764;-78
2022/10/24 11:05:52;;;;;;;5.00;2.60;;;;;;;22.43;53.17;98569.84;6899649;28;20575;-78
2022/10/24 11:09:27;;;;;;;3.87;2.80;;;;;;;22.13;53.23;98567.28;6894607;28;20225;-78
2022/10/24 11:12:49;;;;;;;5.80;2.10;;;;;;;21.51;54.87;98558.84;6895481;28;20320;-78
2022/10/24 11:16:15;;;;;;;4.40;2.20;;;;;;;21.23;56.12;98573.19;6895246;28;20232;-78
2022/10/24 11:19:47;;;;;;;4.97;2.50;;;;;;;21.59;55.66;98557.44;6895417;28;20232;-78
2022/10/24 11:23:14;;;;;;;6.60;2.53;;;;;;;22.19;54.27;98565.34;6895971;28;20236;-78
2022/10/24 11:26:41;;;;;;;5.07;2.43;;;;;;;21.87;55.08;98563.06;6899250;28;20278;-79
2022/10/24 11:30:06;;;;;;;4.43;2.17;;;;;;;21.77;54.83;98562.31;6895345;28;20371;-78
2022/10/24 11:33:30;;;;;;;6.43;3.03;;;;;;;21.90;53.95;98562.50;6921292;28;20675;-78
2022/10/24 11:36:55;;;;;;;3.70;2.47;;;;;;;21.63;54.73;98553.84;6921399;28;20369;-78
2022/10/24 11:40:20;;;;;;;5.67;2.93;;;;;;;21.69;54.58;98550.00;6928208;28;20248;-78
2022/10/24 11:43:45;;;;;;;7.90;3.07;;;;;;;21.92;54.34;98549.31;6923698;28;20195;-79
2022/10/24 11:47:34;;;;;;;5.80;2.33;;;;;;;20.93;54.87;98484.72;6922299;28;20298;-78
2022/10/24 11:50:58;;;;;;;6.13;2.73;;;;;;;21.53;54.74;98518.22;6920607;28;20304;-78
2022/10/24 11:54:25;;;;;;;4.50;2.17;;;;;;;21.53;53.91;98523.69;6922985;28;20378;-79
2022/10/24 11:57:51;;;;;;;6.43;2.33;;;;;;;21.27;54.70;98501.34;6921408;28;20286;-79
2022/10/24 12:01:30;;;;;;;3.60;2.40;;;;;;;21.39;54.42;98497.16;6925216;28;20229;-79
2022/10/24 12:05:10;;;;;;;3.80;1.70;;;;;;;21.26;53.82;98511.50;6922069;28;20289;-79
2022/10/24 12:08:57;;;;;;;4.30;2.20;;;;;;;21.19;54.65;98487.09;6888972;28;20217;-79
2022/10/24 12:12:28;;;;;;;2.67;2.03;;;;;;;21.07;54.29;98490.44;6885070;28;20250;-79
2022/10/24 12:15:56;;;;;;;3.33;1.77;;;;;;;20.72;55.40;98488.63;6895226;28;20291;-79
2022/10/24 12:19:21;;;;;;;2.37;1.93;;;;;;;21.43;53.76;98496.31;6893539;28;20252;-79
2022/10/24 12:22:43;;;;;;;2.07;1.60;;;;;;;21.28;53.78;98479.13;6898472;28;20375;-79
2022/10/24 12:26:07;;;;;;;3.20;2.10;;;;;;;21.27;53.19;98461.84;6897122;28;20255;-79
2022/10/24 12:29:32;;;;;;;1.90;1.60;;;;;;;21.52;52.69;98494.63;6894495;28;20199;-79
2022/10/24 12:32:56;;;;;;;3.10;1.87;;;;;;;21.36;52.64;98484.03;6894094;28;20227;-79
2022/10/24 12:36:57;;;;;;;5.03;1.70;;;;;;;21.59;52.29;98491.59;6895321;28;20208;-78
2022/10/24 12:40:51;;;;;;;2.87;1.70;;;;;;;21.64;51.69;98492.38;6893682;28;20330;-79
2022/10/24 12:44:41;;;;;;;2.10;1.53;;;;;;;21.22;52.47;98484.91;6892718;28;20221;-78
2022/10/24 12:48:29;;;;;;;4.73;1.40;;;;;;;21.32;52.32;98488.44;6892254;28;20347;-79
2022/10/24 12:51:52;;;;;;;2.20;1.67;;;;;;;21.61;51.94;98505.84;6911605;28;20639;-79
2022/10/24 12:55:30;;;;;;;1.93;1.40;;;;;;;21.30;52.40;98505.16;6920192;28;20287;-78
2022/10/24 12:59:17;;;;;;;2.77;1.90;;;;;;;21.69;51.39;98511.59;6919661;28;20217;-79
2022/10/24 13:02:51;;;;;;;6.37;1.70;;;;;;;21.48;51.70;98507.25;6919841;28;20232;-79
2022/10/24 13:06:14;;;;;;;4.83;2.30;;;;;;;21.85;51.32;98528.78;6914255;28;20202;-79
2022/10/24 13:09:43;;;;;;;2.87;1.77;;;;;;;21.62;50.86;98519.28;6919484;28;20275;-80
2022/10/24 13:13:30;;;;;;;3.63;2.20;;;;;;;21.90;50.57;98535.03;6920054;28;20192;-78
2022/10/24 13:16:58;;;;;;;3.73;1.37;;;;;;;21.65;51.01;98526.94;6919436;28;20233;-78
2022/10/24 13:20:23;;;;;;;2.87;1.60;;;;;;;21.89;50.54;98507.91;6924237;28;20224;-79
2022/10/24 13:23:46;;;;;;;2.83;2.07;;;;;;;21.74;50.56;98524.44;6924328;28;20279;-78
2022/10/24 13:27:25;;;;;;;2.13;1.27;;;;;;;22.09;49.65;98521.47;6924275;28;20364;-79
2022/10/24 13:30:47;;;;;;;1.70;1.33;;;;;;;21.87;49.28;98516.41;6924577;28;20279;-79
2022/10/24 13:34:27;;;;;;;2.43;1.50;;;;;;;21.59;50.41;98511.59;6924715;28;20354;-80
2022/10/24 13:37:51;;;;;;;2.57;1.47;;;;;;;20.93;50.61;98472.97;6924466;28;20242;-79
2022/10/24 13:41:21;;;;;;;3.27;1.47;;;;;;;21.18;50.87;98523.84;6925037;28;20232;-79
2022/10/24 13:44:47;;;;;;;1.23;0.97;;;;;;;21.46;50.18;98505.91;6925346;28;20271;-80
2022/10/24 13:48:11;;;;;;;1.83;1.60;;;;;;;21.23;50.90;98481.88;6922921;28;20195;-80
2022/10/24 13:51:36;;;;;;;2.60;1.60;;;;;;;21.48;50.13;98520.19;6910585;28;20242;-79
2022/10/24 13:55:01;;;;;;;3.10;1.50;;;;;;;21.55;50.14;98523.44;6907822;28;20192;-79
2022/10/24 13:58:24;;;;;;;2.80;1.30;;;;;;;21.70;50.10;98502.25;6909999;28;20216;-80
2022/10/24 14:01:47;;;;;;;2.00;1.50;;;;;;;21.74;50.16;98516.22;6907141;28;20326;-79
2022/10/24 14:05:18;;;;;;;1.80;1.40;;;;;;;21.69;50.33;98539.03;6924151;28;20716;-79
2022/10/24 14:08:43;;;;;;;4.10;1.40;;;;;;;21.44;50.37;98530.06;6922794;28;20223;-79
2022/10/24 14:12:05;;;;;;;1.93;1.30;;;;;;;21.54;49.72;98527.28;6924033;28;20235;-79
2022/10/24 14:15:30;;;;;;;2.43;1.67;;;;;;;21.55;50.29;98537.94;6923665;28;20235;-79
2022/10/24 14:19:10;;;;;;;2.40;1.87;;;;;;;21.66;49.71;98546.97;6922668;28;20274;-79
2022/10/24 14:22:38;;;;;;;2.80;1.87;;;;;;;21.84;49.25;98540.88;6923219;28;20232;-80
2022/10/24 14:26:01;;;;;;;3.73;2.20;;;;;;;21.62;49.42;98537.66;6923443;28;20726;-79
2022/10/24 14:29:24;;;;;;;2.07;1.87;;;;;;;21.60;49.23;98531.63;6921841;28;20568;-79
2022/10/24 14:32:45;;;;;;;2.90;1.60;;;;;;;22.01;48.73;98546.81;6923876;28;20224;-79
2022/10/24 14:36:09;;;;;;;2.63;1.80;;;;;;;21.83;48.63;98479.66;6923393;28;20300;-80
2022/10/24 14:39:30;;;;;;;5.10;1.70;;;;;;;21.89;49.14;98536.16;6924266;28;20268;-79
2022/10/24 14:42:53;;;;;;;2.30;1.70;;;;;;;22.16;48.87;98538.44;6924291;28;20317;-79
2022/10/24 14:46:30;;;;;;;6.23;2.23;;;;;;;22.33;48.39;98500.41;6923087;28;20213;-79
2022/10/24 14:49:52;;;;;;;3.30;1.70;;;;;;;22.29;47.73;98488.34;6923003;28;20720;-79
2022/10/24 14:53:26;;;;;;;4.53;2.40;;;;;;;22.71;47.19;98519.59;6923332;28;20912;-80
2022/10/24 14:56:48;;;;;;;3.50;1.80;;;;;;;22.88;47.25;98499.88;6924546;28;20207;-78
2022/10/24 15:00:19;;;;;;;1.90;1.70;;;;;;;23.22;46.65;98500.63;6922743;28;20233;-79
2022/10/24 15:03:51;;;;;;;2.70;1.50;;;;;;;22.98;45.95;98521.78;6923567;28;20634;-79
2022/10/24 15:07:19;;;;;;;2.27;1.60;;;;;;;22.95;46.73;98534.19;6897318;28;20658;-79
2022/10/24 15:10:43;;;;;;;2.23;1.60;;;;;;;22.89;47.60;98540.03;6909576;28;20250;-80
2022/10/24 15:14:05;;;;;;;1.93;1.67;;;;;;;22.47;48.65;98548.94;6918284;28;20215;-80
2022/10/24 15:17:28;;;;;;;4.97;1.80;;;;;;;22.96;47.90;98540.50;6933038;28;20219;-79
2022/10/24 15:20:51;;;;;;;2.60;1.67;;;;;;;22.64;47.62;98507.28;6928682;28;20223;-79
2022/10/24 15:24:20;;;;;;;3.10;1.63;;;;;;;22.69;48.26;98538.31;6923359;28;20586;-79
2022/10/24 15:27:45;;;;;;;1.87;1.50;;;;;;;22.52;48.72;98537.06;6921607;28;20192;-80
2022/10/24 15:31:09;;;;;;;2.73;1.87;;;;;;;22.37;49.35;98527.00;6921571;28;20238;-79
2022/10/24 15:34:33;;;;;;;2.93;2.00;;;;;;;22.14;50.08;98544.22;6918564;28;20209;-79
2022/10/24 15:37:55;;;;;;;3.43;2.17;;;;;;;22.04;50.55;98544.31;6920802;28;20213;-79
2022/10/24 15:41:17;;;;;;;3.57;2.03;;;;;;;22.16;49.35;98503.56;6909302;28;20299;-79
2022/10/24 15:44:40;;;;;;;2.77;1.80;;;;;;;22.15;49.08;98548.63;6907986;28;20314;-79
2022/10/24 15:48:01;;;;;;;2.83;1.97;;;;;;;22.16;49.12;98550.25;6897862;28;20955;-79
2022/10/24 15:51:24;;;;;;;3.40;1.87;;;;;;;22.15;49.01;98539.56;6904612;28;20264;-79
2022/10/24 15:54:45;;;;;;;2.77;1.80;;;;;;;22.29;48.60;98562.50;6908230;28;20279;-79
2022/10/24 15:58:10;;;;;;;3.47;1.60;;;;;;;22.13;48.39;98528.84;6914698;28;20253;-80
2022/10/24 16:01:36;;;;;;;5.30;2.00;;;;;;;22.18;48.50;98555.47;6912014;28;20240;-81
2022/10/24 16:04:57;;;;;;;2.67;1.73;;;;;;;22.10;48.98;98580.78;6919679;28;20391;-79
2022/10/24 16:08:20;;;;;;;19.43;8.17;;;;;;;21.88;50.09;98563.88;6921213;28;20228;-80